sensor_id;sensor_type;location;lat;lon;timestamp;pressure;altitude;pressure_sealevel;temperature;humidity
14253;BME280;7210;51.502;10.722;2023-07-31T00:01:09;99275.88;;;17.14;85.50
14253;BME280;7210;51.502;10.722;2023-07-31T00:03:36;99275.25;;;17.27;84.58
14253;BME280;7210;51.502;10.722;2023-07-31T00:06:03;99280.31;;;17.29;84.58
14253;BME280;7210;51.502;10.722;2023-07-31T00:08:32;99295.06;;;17.21;85.57
14253;BME280;7210;51.502;10.722;2023-07-31T00:10:59;99324.03;;;17.04;86.68
14253;BME280;7210;51.502;10.722;2023-07-31T00:13:26;99331.31;;;16.84;87.96
14253;BME280;7210;51.502;10.722;2023-07-31T00:15:54;99337.53;;;16.64;89.41
14253;BME280;7210;51.502;10.722;2023-07-31T00:18:24;99334.66;;;16.46;90.90
14253;BME280;7210;51.502;10.722;2023-07-31T00:20:51;99319.97;;;16.28;92.11
14253;BME280;7210;51.502;10.722;2023-07-31T00:23:18;99313.03;;;16.22;93.34
14253;BME280;7210;51.502;10.722;2023-07-31T00:25:47;99297.06;;;16.17;94.42
14253;BME280;7210;51.502;10.722;2023-07-31T00:28:14;99281.06;;;16.12;95.36
14253;BME280;7210;51.502;10.722;2023-07-31T00:30:41;99271.19;;;16.13;96.28
14253;BME280;7210;51.502;10.722;2023-07-31T00:33:09;99272.78;;;16.14;97.18
14253;BME280;7210;51.502;10.722;2023-07-31T00:35:37;99263.97;;;16.18;98.02
14253;BME280;7210;51.502;10.722;2023-07-31T00:38:04;99248.53;;;16.15;98.49
14253;BME280;7210;51.502;10.722;2023-07-31T00:40:35;99241.03;;;16.07;99.23
14253;BME280;7210;51.502;10.722;2023-07-31T00:43:05;99225.06;;;16.02;100.00
14253;BME280;7210;51.502;10.722;2023-07-31T00:45:34;99227.47;;;15.99;100.00
14253;BME280;7210;51.502;10.722;2023-07-31T00:48:06;99215.47;;;15.91;100.00
14253;BME280;7210;51.502;10.722;2023-07-31T00:50:35;99200.31;;;15.82;100.00
14253;BME280;7210;51.502;10.722;2023-07-31T00:53:02;99201.09;;;15.82;100.00
14253;BME280;7210;51.502;10.722;2023-07-31T00:55:30;99197.66;;;15.82;100.00
14253;BME280;7210;51.502;10.722;2023-07-31T00:57:58;99191.25;;;15.83;100.00
14253;BME280;7210;51.502;10.722;2023-07-31T01:00:26;99170.72;;;15.83;100.00
14253;BME280;7210;51.502;10.722;2023-07-31T01:02:54;99174.44;;;15.82;100.00
14253;BME280;7210;51.502;10.722;2023-07-31T01:05:33;99160.59;;;15.80;100.00
14253;BME280;7210;51.502;10.722;2023-07-31T01:08:10;99146.75;;;15.78;100.00
14253;BME280;7210;51.502;10.722;2023-07-31T01:10:50;99147.53;;;15.84;100.00
14253;BME280;7210;51.502;10.722;2023-07-31T01:13:22;99141.63;;;15.87;100.00
14253;BME280;7210;51.502;10.722;2023-07-31T01:15:52;99126.97;;;15.89;100.00
14253;BME280;7210;51.502;10.722;2023-07-31T01:18:21;99124.81;;;15.91;100.00
14253;BME280;7210;51.502;10.722;2023-07-31T01:20:57;99119.53;;;15.86;100.00
14253;BME280;7210;51.502;10.722;2023-07-31T01:24:02;99114.16;;;15.91;100.00
14253;BME280;7210;51.502;10.722;2023-07-31T01:26:39;99099.78;;;15.92;100.00
14253;BME280;7210;51.502;10.722;2023-07-31T01:29:23;99091.50;;;15.94;100.00
14253;BME280;7210;51.502;10.722;2023-07-31T01:31:54;99084.31;;;15.94;100.00
14253;BME280;7210;51.502;10.722;2023-07-31T01:34:23;99077.88;;;15.95;100.00
14253;BME280;7210;51.502;10.722;2023-07-31T01:36:51;99077.88;;;15.95;100.00
14253;BME280;7210;51.502;10.722;2023-07-31T01:39:20;99065.63;;;15.94;100.00
14253;BME280;7210;51.502;10.722;2023-07-31T01:41:49;99053.38;;;15.93;100.00
14253;BME280;7210;51.502;10.722;2023-07-31T01:44:16;99055.50;;;15.91;100.00
14253;BME280;7210;51.502;10.722;2023-07-31T01:46:43;99045.41;;;15.88;100.00
14253;BME280;7210;51.502;10.722;2023-07-31T01:49:12;99033.69;;;15.84;100.00
14253;BME280;7210;51.502;10.722;2023-07-31T01:51:39;99032.06;;;15.83;100.00
14253;BME280;7210;51.502;10.722;2023-07-31T01:54:07;99029.41;;;15.83;100.00
14253;BME280;7210;51.502;10.722;2023-07-31T01:56:34;99026.75;;;15.83;100.00
14253;BME280;7210;51.502;10.722;2023-07-31T01:59:03;99026.75;;;15.83;100.00
14253;BME280;7210;51.502;10.722;2023-07-31T02:01:30;99025.97;;;15.83;100.00
14253;BME280;7210;51.502;10.722;2023-07-31T02:03:58;99016.06;;;15.83;100.00
14253;BME280;7210;51.502;10.722;2023-07-31T02:06:26;99017.69;;;15.84;100.00
14253;BME280;7210;51.502;10.722;2023-07-31T02:08:53;99004.06;;;15.86;100.00
14253;BME280;7210;51.502;10.722;2023-07-31T02:11:20;99006.47;;;15.87;100.00
14253;BME280;7210;51.502;10.722;2023-07-31T02:13:49;98997.97;;;15.85;100.00
14253;BME280;7210;51.502;10.722;2023-07-31T02:16:19;99002.72;;;15.88;100.00
14253;BME280;7210;51.502;10.722;2023-07-31T02:18:46;99003.25;;;15.90;100.00
14253;BME280;7210;51.502;10.722;2023-07-31T02:21:13;99001.38;;;15.91;100.00
14253;BME280;7210;51.502;10.722;2023-07-31T02:23:41;99004.06;;;15.91;100.00
14253;BME280;7210;51.502;10.722;2023-07-31T02:26:08;98999.50;;;15.91;100.00
14253;BME280;7210;51.502;10.722;2023-07-31T02:28:35;99000.56;;;15.90;100.00
14253;BME280;7210;51.502;10.722;2023-07-31T02:31:03;99000.03;;;15.93;100.00
14253;BME280;7210;51.502;10.722;2023-07-31T02:33:32;98998.47;;;15.92;100.00
14253;BME280;7210;51.502;10.722;2023-07-31T02:35:59;98984.81;;;15.94;100.00
14253;BME280;7210;51.502;10.722;2023-07-31T02:38:27;98984.06;;;15.93;100.00
14253;BME280;7210;51.502;10.722;2023-07-31T02:40:54;98979.78;;;15.92;100.00
14253;BME280;7210;51.502;10.722;2023-07-31T02:43:21;98973.38;;;15.93;100.00
14253;BME280;7210;51.502;10.722;2023-07-31T02:45:51;98970.19;;;15.91;100.00
14253;BME280;7210;51.502;10.722;2023-07-31T02:48:19;98967.25;;;15.88;100.00
14253;BME280;7210;51.502;10.722;2023-07-31T02:50:48;98972.88;;;15.86;100.00
14253;BME280;7210;51.502;10.722;2023-07-31T02:53:16;98966.47;;;15.87;100.00
14253;BME280;7210;51.502;10.722;2023-07-31T02:55:43;98959.56;;;15.81;100.00
14253;BME280;7210;51.502;10.722;2023-07-31T02:58:10;98959.81;;;15.85;100.00
14253;BME280;7210;51.502;10.722;2023-07-31T03:00:42;98956.91;;;15.86;100.00
14253;BME280;7210;51.502;10.722;2023-07-31T03:03:09;98951.56;;;15.86;100.00
14253;BME280;7210;51.502;10.722;2023-07-31T03:05:37;98945.41;;;15.86;100.00
14253;BME280;7210;51.502;10.722;2023-07-31T03:08:06;98937.72;;;15.84;100.00
14253;BME280;7210;51.502;10.722;2023-07-31T03:10:33;98937.19;;;15.82;100.00
14253;BME280;7210;51.502;10.722;2023-07-31T03:13:00;98942.47;;;15.87;100.00
14253;BME280;7210;51.502;10.722;2023-07-31T03:15:28;98947.81;;;15.87;100.00
14253;BME280;7210;51.502;10.722;2023-07-31T03:17:55;98937.41;;;15.91;100.00
14253;BME280;7210;51.502;10.722;2023-07-31T03:20:22;98942.97;;;15.94;100.00
14253;BME280;7210;51.502;10.722;2023-07-31T03:22:50;98937.06;;;15.97;100.00
14253;BME280;7210;51.502;10.722;2023-07-31T03:25:18;98929.59;;;15.99;100.00
14253;BME280;7210;51.502;10.722;2023-07-31T03:27:45;98932.56;;;15.98;100.00
14253;BME280;7210;51.502;10.722;2023-07-31T03:30:13;98933.91;;;15.95;100.00
14253;BME280;7210;51.502;10.722;2023-07-31T03:32:40;98935.50;;;15.91;100.00
14253;BME280;7210;51.502;10.722;2023-07-31T03:35:08;98939.81;;;15.92;100.00
14253;BME280;7210;51.502;10.722;2023-07-31T03:37:35;98929.16;;;15.87;100.00
14253;BME280;7210;51.502;10.722;2023-07-31T03:40:05;98941.44;;;15.83;100.00
14253;BME280;7210;51.502;10.722;2023-07-31T03:42:33;98938.25;;;15.81;100.00
14253;BME280;7210;51.502;10.722;2023-07-31T03:45:08;98942.25;;;15.79;100.00
14253;BME280;7210;51.502;10.722;2023-07-31T03:47:35;98940.94;;;15.76;100.00
14253;BME280;7210;51.502;10.722;2023-07-31T03:50:03;98938.28;;;15.76;100.00
14253;BME280;7210;51.502;10.722;2023-07-31T03:52:30;98946.28;;;15.76;100.00
14253;BME280;7210;51.502;10.722;2023-07-31T03:54:57;98936.16;;;15.73;100.00
14253;BME280;7210;51.502;10.722;2023-07-31T03:57:25;98946.84;;;15.73;100.00
14253;BME280;7210;51.502;10.722;2023-07-31T03:59:53;98943.91;;;15.75;100.00
14253;BME280;7210;51.502;10.722;2023-07-31T04:02:21;98947.09;;;15.77;100.00
14253;BME280;7210;51.502;10.722;2023-07-31T04:04:48;98947.88;;;15.77;100.00
14253;BME280;7210;51.502;10.722;2023-07-31T04:07:15;98947.06;;;15.82;100.00
14253;BME280;7210;51.502;10.722;2023-07-31T04:09:42;98937.41;;;15.86;100.00
14253;BME280;7210;51.502;10.722;2023-07-31T04:12:10;98939.00;;;15.87;100.00
14253;BME280;7210;51.502;10.722;2023-07-31T04:14:37;98949.41;;;15.88;100.00
14253;BME280;7210;51.502;10.722;2023-07-31T04:17:06;98954.19;;;15.91;100.00
14253;BME280;7210;51.502;10.722;2023-07-31T04:19:33;98954.19;;;15.91;100.00
14253;BME280;7210;51.502;10.722;2023-07-31T04:22:00;98948.31;;;15.94;100.00
14253;BME280;7210;51.502;10.722;2023-07-31T04:24:28;98950.97;;;15.94;100.00
14253;BME280;7210;51.502;10.722;2023-07-31T04:26:55;98949.91;;;15.95;100.00
14253;BME280;7210;51.502;10.722;2023-07-31T04:29:22;98946.16;;;15.96;100.00
14253;BME280;7210;51.502;10.722;2023-07-31T04:31:50;98948.25;;;15.99;100.00
14253;BME280;7210;51.502;10.722;2023-07-31T04:34:18;98931.22;;;16.00;100.00
14253;BME280;7210;51.502;10.722;2023-07-31T04:36:46;98934.38;;;16.02;100.00
14253;BME280;7210;51.502;10.722;2023-07-31T04:39:13;98935.41;;;16.06;100.00
14253;BME280;7210;51.502;10.722;2023-07-31T04:41:40;98928.50;;;16.05;100.00
14253;BME280;7210;51.502;10.722;2023-07-31T04:44:07;98927.38;;;16.11;100.00
14253;BME280;7210;51.502;10.722;2023-07-31T04:46:37;98935.06;;;16.18;100.00
14253;BME280;7210;51.502;10.722;2023-07-31T04:49:04;98940.63;;;16.21;100.00
14253;BME280;7210;51.502;10.722;2023-07-31T04:51:37;98938.50;;;16.23;100.00
14253;BME280;7210;51.502;10.722;2023-07-31T04:54:04;98952.88;;;16.27;100.00
14253;BME280;7210;51.502;10.722;2023-07-31T04:56:32;98953.34;;;16.34;100.00
14253;BME280;7210;51.502;10.722;2023-07-31T04:58:59;98950.13;;;16.37;100.00
14253;BME280;7210;51.502;10.722;2023-07-31T05:01:26;98949.06;;;16.38;100.00
14253;BME280;7210;51.502;10.722;2023-07-31T05:03:54;98945.34;;;16.39;100.00
14253;BME280;7210;51.502;10.722;2023-07-31T05:06:21;98949.59;;;16.40;100.00
14253;BME280;7210;51.502;10.722;2023-07-31T05:08:51;98947.41;;;16.47;100.00
14253;BME280;7210;51.502;10.722;2023-07-31T05:11:18;98946.31;;;16.48;100.00
14253;BME280;7210;51.502;10.722;2023-07-31T05:13:46;98953.75;;;16.51;100.00
14253;BME280;7210;51.502;10.722;2023-07-31T05:16:13;98954.81;;;16.55;100.00
14253;BME280;7210;51.502;10.722;2023-07-31T05:18:40;98953.66;;;16.61;100.00
14253;BME280;7210;51.502;10.722;2023-07-31T05:21:08;98950.44;;;16.64;100.00
14253;BME280;7210;51.502;10.722;2023-07-31T05:23:36;98947.19;;;16.67;100.00
14253;BME280;7210;51.502;10.722;2023-07-31T05:26:06;98947.19;;;16.67;100.00
14253;BME280;7210;51.502;10.722;2023-07-31T05:28:35;98953.03;;;16.69;100.00
14253;BME280;7210;51.502;10.722;2023-07-31T05:31:12;98963.13;;;16.77;100.00
14253;BME280;7210;51.502;10.722;2023-07-31T05:33:39;98958.25;;;16.84;100.00
14253;BME280;7210;51.502;10.722;2023-07-31T05:36:06;98968.88;;;16.89;100.00
14253;BME280;7210;51.502;10.722;2023-07-31T05:38:33;98962.16;;;16.97;100.00
14253;BME280;7210;51.502;10.722;2023-07-31T05:41:01;98975.16;;;17.03;100.00
14253;BME280;7210;51.502;10.722;2023-07-31T05:43:29;98985.75;;;17.08;100.00
14253;BME280;7210;51.502;10.722;2023-07-31T05:46:00;98988.34;;;17.18;100.00
14253;BME280;7210;51.502;10.722;2023-07-31T05:48:27;98978.44;;;17.19;100.00
14253;BME280;7210;51.502;10.722;2023-07-31T05:50:54;98981.66;;;17.21;99.77
14253;BME280;7210;51.502;10.722;2023-07-31T05:53:22;98978.41;;;17.24;98.98
14253;BME280;7210;51.502;10.722;2023-07-31T05:55:49;98990.91;;;17.28;98.68
14253;BME280;7210;51.502;10.722;2023-07-31T05:58:18;99004.97;;;17.39;98.41
14253;BME280;7210;51.502;10.722;2023-07-31T06:00:47;99002.19;;;17.49;97.90
14253;BME280;7210;51.502;10.722;2023-07-31T06:03:14;99005.06;;;17.52;97.39
14253;BME280;7210;51.502;10.722;2023-07-31T06:05:41;99013.28;;;17.61;97.10
14253;BME280;7210;51.502;10.722;2023-07-31T06:08:09;99009.66;;;17.70;96.46
14253;BME280;7210;51.502;10.722;2023-07-31T06:10:36;99020.69;;;17.87;95.58
14253;BME280;7210;51.502;10.722;2023-07-31T06:13:03;99028.31;;;17.99;95.05
14253;BME280;7210;51.502;10.722;2023-07-31T06:15:31;99038.00;;;18.13;94.31
14253;BME280;7210;51.502;10.722;2023-07-31T06:17:59;99032.47;;;18.23;93.44
14253;BME280;7210;51.502;10.722;2023-07-31T06:20:30;99038.78;;;18.32;92.20
14253;BME280;7210;51.502;10.722;2023-07-31T06:22:57;99042.56;;;18.31;91.54
14253;BME280;7210;51.502;10.722;2023-07-31T06:25:25;99057.16;;;18.20;91.21
14253;BME280;7210;51.502;10.722;2023-07-31T06:27:52;99067.06;;;18.20;91.05
14253;BME280;7210;51.502;10.722;2023-07-31T06:30:19;99071.03;;;18.22;90.60
14253;BME280;7210;51.502;10.722;2023-07-31T06:32:46;99085.72;;;18.25;90.41
14253;BME280;7210;51.502;10.722;2023-07-31T06:35:15;99091.91;;;18.25;89.70
14253;BME280;7210;51.502;10.722;2023-07-31T06:37:42;99098.78;;;18.31;89.41
14253;BME280;7210;51.502;10.722;2023-07-31T06:40:11;99108.78;;;18.44;89.06
14253;BME280;7210;51.502;10.722;2023-07-31T06:42:38;99129.84;;;18.69;88.97
14253;BME280;7210;51.502;10.722;2023-07-31T06:45:07;99132.72;;;18.91;88.24
14253;BME280;7210;51.502;10.722;2023-07-31T06:47:35;99130.31;;;18.90;87.56
14253;BME280;7210;51.502;10.722;2023-07-31T06:50:02;99143.44;;;18.91;86.87
14253;BME280;7210;51.502;10.722;2023-07-31T06:52:31;99154.75;;;18.88;86.51
14253;BME280;7210;51.502;10.722;2023-07-31T06:55:03;99158.31;;;18.84;86.23
14253;BME280;7210;51.502;10.722;2023-07-31T06:57:30;99172.97;;;18.86;85.99
14253;BME280;7210;51.502;10.722;2023-07-31T06:59:58;99160.81;;;18.75;85.77
14253;BME280;7210;51.502;10.722;2023-07-31T07:02:25;99166.47;;;18.74;85.50
14253;BME280;7210;51.502;10.722;2023-07-31T07:04:54;99186.38;;;18.86;84.73
14253;BME280;7210;51.502;10.722;2023-07-31T07:07:21;99191.06;;;18.94;84.57
14253;BME280;7210;51.502;10.722;2023-07-31T07:09:50;99219.66;;;19.17;84.50
14253;BME280;7210;51.502;10.722;2023-07-31T07:12:18;99219.84;;;19.26;84.22
14253;BME280;7210;51.502;10.722;2023-07-31T07:14:45;99211.44;;;19.32;83.35
14253;BME280;7210;51.502;10.722;2023-07-31T07:17:24;99213.25;;;19.18;82.93
14253;BME280;7210;51.502;10.722;2023-07-31T07:19:51;99215.34;;;19.03;82.92
14253;BME280;7210;51.502;10.722;2023-07-31T07:22:19;99232.94;;;19.09;83.09
14253;BME280;7210;51.502;10.722;2023-07-31T07:24:46;99235.19;;;19.02;82.90
14253;BME280;7210;51.502;10.722;2023-07-31T07:27:15;99228.69;;;18.89;83.06
14253;BME280;7210;51.502;10.722;2023-07-31T07:29:42;99216.06;;;18.90;82.66
14253;BME280;7210;51.502;10.722;2023-07-31T07:32:09;99251.13;;;18.93;82.71
14253;BME280;7210;51.502;10.722;2023-07-31T07:34:37;99235.56;;;18.95;82.26
14253;BME280;7210;51.502;10.722;2023-07-31T07:37:05;99241.63;;;18.82;82.49
14253;BME280;7210;51.502;10.722;2023-07-31T07:39:33;99250.44;;;18.83;82.06
14253;BME280;7210;51.502;10.722;2023-07-31T07:42:00;99262.16;;;18.92;82.30
14253;BME280;7210;51.502;10.722;2023-07-31T07:44:31;99257.13;;;18.85;82.13
14253;BME280;7210;51.502;10.722;2023-07-31T07:46:58;99270.81;;;18.84;82.30
14253;BME280;7210;51.502;10.722;2023-07-31T07:49:26;99270.88;;;18.79;82.73
14253;BME280;7210;51.502;10.722;2023-07-31T07:51:54;99267.16;;;18.75;82.91
14253;BME280;7210;51.502;10.722;2023-07-31T07:54:36;99264.16;;;18.58;82.98
14253;BME280;7210;51.502;10.722;2023-07-31T07:57:18;99285.31;;;18.59;83.23
14253;BME280;7210;51.502;10.722;2023-07-31T07:59:49;99291.59;;;18.73;83.21
14253;BME280;7210;51.502;10.722;2023-07-31T08:02:18;99276.66;;;18.67;83.16
14253;BME280;7210;51.502;10.722;2023-07-31T08:04:45;99278.88;;;18.60;83.42
14253;BME280;7210;51.502;10.722;2023-07-31T08:07:24;99289.63;;;18.55;83.97
14253;BME280;7210;51.502;10.722;2023-07-31T08:09:52;99300.19;;;18.47;84.68
14253;BME280;7210;51.502;10.722;2023-07-31T08:12:19;99299.00;;;18.34;85.21
14253;BME280;7210;51.502;10.722;2023-07-31T08:14:49;99304.28;;;18.11;86.66
14253;BME280;7210;51.502;10.722;2023-07-31T08:17:17;99306.78;;;18.02;88.04
14253;BME280;7210;51.502;10.722;2023-07-31T08:19:54;99302.19;;;18.08;89.03
14253;BME280;7210;51.502;10.722;2023-07-31T08:22:24;99279.34;;;18.15;89.68
14253;BME280;7210;51.502;10.722;2023-07-31T08:24:54;99279.03;;;18.22;90.47
14253;BME280;7210;51.502;10.722;2023-07-31T08:27:21;99263.47;;;18.24;91.17
14253;BME280;7210;51.502;10.722;2023-07-31T08:29:52;99255.44;;;18.47;91.88
14253;BME280;7210;51.502;10.722;2023-07-31T08:32:19;99240.28;;;18.61;91.55
14253;BME280;7210;51.502;10.722;2023-07-31T08:34:47;99216.06;;;18.71;90.95
14253;BME280;7210;51.502;10.722;2023-07-31T08:37:24;99201.22;;;18.60;91.17
14253;BME280;7210;51.502;10.722;2023-07-31T08:39:52;99186.38;;;18.49;91.58
14253;BME280;7210;51.502;10.722;2023-07-31T08:42:20;99199.75;;;18.49;92.12
14253;BME280;7210;51.502;10.722;2023-07-31T08:44:50;99197.00;;;18.54;92.13
14253;BME280;7210;51.502;10.722;2023-07-31T08:47:19;99172.53;;;18.42;92.09
14253;BME280;7210;51.502;10.722;2023-07-31T08:49:47;99178.56;;;18.53;92.20
14253;BME280;7210;51.502;10.722;2023-07-31T08:52:35;99146.75;;;18.46;91.68
14253;BME280;7210;51.502;10.722;2023-07-31T08:55:04;99149.59;;;18.55;91.87
14253;BME280;7210;51.502;10.722;2023-07-31T08:57:34;99148.94;;;18.63;91.46
14253;BME280;7210;51.502;10.722;2023-07-31T09:00:08;99126.81;;;18.57;91.10
14253;BME280;7210;51.502;10.722;2023-07-31T09:02:46;99121.00;;;18.50;91.42
14253;BME280;7210;51.502;10.722;2023-07-31T09:05:16;99124.13;;;18.57;91.52
14253;BME280;7210;51.502;10.722;2023-07-31T09:07:47;99140.41;;;18.79;91.14
14253;BME280;7210;51.502;10.722;2023-07-31T09:10:24;99123.25;;;18.80;90.69
14253;BME280;7210;51.502;10.722;2023-07-31T09:12:52;99108.78;;;18.81;90.11
14253;BME280;7210;51.502;10.722;2023-07-31T09:15:27;99118.09;;;19.02;89.72
14253;BME280;7210;51.502;10.722;2023-07-31T09:18:01;99122.94;;;19.32;88.70
14253;BME280;7210;51.502;10.722;2023-07-31T09:20:42;99119.91;;;19.52;87.32
14253;BME280;7210;51.502;10.722;2023-07-31T09:23:12;99113.53;;;19.48;86.66
14253;BME280;7210;51.502;10.722;2023-07-31T09:25:54;99120.41;;;19.54;86.19
14253;BME280;7210;51.502;10.722;2023-07-31T09:28:31;99133.53;;;19.69;85.75
14253;BME280;7210;51.502;10.722;2023-07-31T09:31:00;99135.44;;;19.82;84.68
14253;BME280;7210;51.502;10.722;2023-07-31T09:33:55;99137.44;;;19.90;83.97
14253;BME280;7210;51.502;10.722;2023-07-31T09:36:24;99132.97;;;19.72;83.43
14253;BME280;7210;51.502;10.722;2023-07-31T09:38:52;99166.34;;;19.93;83.02
14253;BME280;7210;51.502;10.722;2023-07-31T09:41:20;99166.97;;;20.03;82.38
14253;BME280;7210;51.502;10.722;2023-07-31T09:43:53;99167.09;;;20.12;81.79
14253;BME280;7210;51.502;10.722;2023-07-31T09:46:22;99177.16;;;20.20;81.31
14253;BME280;7210;51.502;10.722;2023-07-31T09:48:49;99193.53;;;20.05;81.62
14253;BME280;7210;51.502;10.722;2023-07-31T09:51:16;99224.88;;;20.09;82.03
14253;BME280;7210;51.502;10.722;2023-07-31T09:53:50;99229.25;;;20.32;82.19
14253;BME280;7210;51.502;10.722;2023-07-31T09:56:20;99230.25;;;20.50;81.26
14253;BME280;7210;51.502;10.722;2023-07-31T09:58:48;99231.00;;;20.64;80.76
14253;BME280;7210;51.502;10.722;2023-07-31T10:01:16;99221.72;;;20.97;79.64
14253;BME280;7210;51.502;10.722;2023-07-31T10:03:46;99221.97;;;21.09;79.01
14253;BME280;7210;51.502;10.722;2023-07-31T10:06:16;99217.47;;;20.96;78.63
14253;BME280;7210;51.502;10.722;2023-07-31T10:08:49;99228.03;;;20.92;78.32
14253;BME280;7210;51.502;10.722;2023-07-31T10:11:19;99240.03;;;20.81;77.95
14253;BME280;7210;51.502;10.722;2023-07-31T10:13:48;99244.75;;;20.76;78.04
14253;BME280;7210;51.502;10.722;2023-07-31T10:16:17;99241.56;;;20.74;77.58
14253;BME280;7210;51.502;10.722;2023-07-31T10:18:49;99241.56;;;20.74;77.41
14253;BME280;7210;51.502;10.722;2023-07-31T10:21:18;99276.59;;;20.96;77.36
14253;BME280;7210;51.502;10.722;2023-07-31T10:23:49;99269.31;;;21.32;76.35
14253;BME280;7210;51.502;10.722;2023-07-31T10:26:24;99263.34;;;21.35;75.95
14253;BME280;7210;51.502;10.722;2023-07-31T10:28:53;99263.69;;;21.42;75.43
14253;BME280;7210;51.502;10.722;2023-07-31T10:31:22;99285.91;;;21.47;75.15
14253;BME280;7210;51.502;10.722;2023-07-31T10:33:52;99282.53;;;21.42;74.51
14253;BME280;7210;51.502;10.722;2023-07-31T10:36:21;99294.69;;;21.75;74.13
14253;BME280;7210;51.502;10.722;2023-07-31T10:38:50;99311.59;;;22.19;73.53
14253;BME280;7210;51.502;10.722;2023-07-31T10:41:19;99301.59;;;22.20;72.23
14253;BME280;7210;51.502;10.722;2023-07-31T10:43:47;99265.19;;;21.92;71.34
14253;BME280;7210;51.502;10.722;2023-07-31T10:46:14;99270.78;;;21.73;71.47
14253;BME280;7210;51.502;10.722;2023-07-31T10:48:42;99317.19;;;21.79;71.66
14253;BME280;7210;51.502;10.722;2023-07-31T10:51:12;99266.66;;;21.54;71.09
14253;BME280;7210;51.502;10.722;2023-07-31T10:53:40;99323.56;;;21.83;71.58
14253;BME280;7210;51.502;10.722;2023-07-31T10:56:09;99305.81;;;21.60;71.15
14253;BME280;7210;51.502;10.722;2023-07-31T10:58:39;99355.16;;;21.91;71.47
14253;BME280;7210;51.502;10.722;2023-07-31T11:01:12;99377.41;;;22.27;71.23
14253;BME280;7210;51.502;10.722;2023-07-31T11:03:46;99334.34;;;22.35;70.01
14253;BME280;7210;51.502;10.722;2023-07-31T11:06:16;99332.09;;;22.29;69.94
14253;BME280;7210;51.502;10.722;2023-07-31T11:08:45;99317.44;;;22.13;69.28
14253;BME280;7210;51.502;10.722;2023-07-31T11:11:15;99332.88;;;21.99;69.58
14253;BME280;7210;51.502;10.722;2023-07-31T11:13:45;99378.97;;;22.41;69.62
14253;BME280;7210;51.502;10.722;2023-07-31T11:16:16;99317.94;;;21.93;69.18
14253;BME280;7210;51.502;10.722;2023-07-31T11:18:46;99337.81;;;22.05;69.00
14253;BME280;7210;51.502;10.722;2023-07-31T11:21:19;99357.97;;;22.08;69.44
14253;BME280;7210;51.502;10.722;2023-07-31T11:23:47;99323.06;;;22.03;68.88
14253;BME280;7210;51.502;10.722;2023-07-31T11:26:16;99313.66;;;21.92;68.99
14253;BME280;7210;51.502;10.722;2023-07-31T11:28:47;99308.28;;;21.92;68.47
14253;BME280;7210;51.502;10.722;2023-07-31T11:31:15;99324.53;;;22.09;68.48
14253;BME280;7210;51.502;10.722;2023-07-31T11:33:43;99325.56;;;22.21;68.44
14253;BME280;7210;51.502;10.722;2023-07-31T11:36:17;99330.00;;;22.26;68.08
14253;BME280;7210;51.502;10.722;2023-07-31T11:38:45;99345.53;;;22.51;67.77
14253;BME280;7210;51.502;10.722;2023-07-31T11:41:15;99332.50;;;22.44;67.53
14253;BME280;7210;51.502;10.722;2023-07-31T11:43:59;99339.56;;;22.32;67.73
14253;BME280;7210;51.502;10.722;2023-07-31T11:46:28;99341.91;;;22.25;67.74
14253;BME280;7210;51.502;10.722;2023-07-31T11:49:00;99279.00;;;21.99;67.58
14253;BME280;7210;51.502;10.722;2023-07-31T11:51:29;99296.00;;;22.08;67.69
14253;BME280;7210;51.502;10.722;2023-07-31T11:54:00;99323.16;;;22.20;67.58
14253;BME280;7210;51.502;10.722;2023-07-31T11:56:28;99301.19;;;22.35;66.71
14253;BME280;7210;51.502;10.722;2023-07-31T11:58:59;99324.22;;;22.41;66.46
14253;BME280;7210;51.502;10.722;2023-07-31T12:01:29;99347.50;;;22.59;66.34
14253;BME280;7210;51.502;10.722;2023-07-31T12:03:57;99358.94;;;22.73;65.97
14253;BME280;7210;51.502;10.722;2023-07-31T12:06:34;99294.38;;;22.29;65.99
14253;BME280;7210;51.502;10.722;2023-07-31T12:09:03;99245.00;;;21.81;65.98
14253;BME280;7210;51.502;10.722;2023-07-31T12:11:31;99310.78;;;21.88;67.17
14253;BME280;7210;51.502;10.722;2023-07-31T12:13:58;99324.13;;;21.93;66.91
14253;BME280;7210;51.502;10.722;2023-07-31T12:16:27;99283.78;;;21.58;67.47
14253;BME280;7210;51.502;10.722;2023-07-31T12:18:55;99274.03;;;21.26;67.89
14253;BME280;7210;51.502;10.722;2023-07-31T12:21:22;99290.78;;;21.23;68.48
14253;BME280;7210;51.502;10.722;2023-07-31T12:23:51;99286.50;;;21.09;68.74
14253;BME280;7210;51.502;10.722;2023-07-31T12:26:20;99275.50;;;20.97;68.86
14253;BME280;7210;51.502;10.722;2023-07-31T12:28:50;99293.91;;;21.03;69.22
14253;BME280;7210;51.502;10.722;2023-07-31T12:31:21;99272.72;;;21.24;68.98
14253;BME280;7210;51.502;10.722;2023-07-31T12:33:50;99314.28;;;21.67;68.80
14253;BME280;7210;51.502;10.722;2023-07-31T12:36:21;99292.97;;;21.79;68.54
14253;BME280;7210;51.502;10.722;2023-07-31T12:38:52;99227.75;;;21.60;68.10
14253;BME280;7210;51.502;10.722;2023-07-31T12:41:19;99243.16;;;21.46;68.49
14253;BME280;7210;51.502;10.722;2023-07-31T12:43:48;99239.88;;;21.27;68.65
14253;BME280;7210;51.502;10.722;2023-07-31T12:46:15;99263.19;;;21.18;69.37
14253;BME280;7210;51.502;10.722;2023-07-31T12:48:43;99221.59;;;21.02;69.04
14253;BME280;7210;51.502;10.722;2023-07-31T12:51:10;99228.69;;;20.98;69.24
14253;BME280;7210;51.502;10.722;2023-07-31T12:53:42;99230.91;;;20.96;69.59
14253;BME280;7210;51.502;10.722;2023-07-31T12:56:11;99214.25;;;20.94;69.54
14253;BME280;7210;51.502;10.722;2023-07-31T12:58:38;99207.91;;;20.90;69.50
14253;BME280;7210;51.502;10.722;2023-07-31T13:01:05;99200.94;;;20.89;69.55
14253;BME280;7210;51.502;10.722;2023-07-31T13:03:33;99193.25;;;20.82;69.80
14253;BME280;7210;51.502;10.722;2023-07-31T13:06:00;99217.16;;;20.84;70.08